Morrow, Georgia
Current Conditions -  °F | °C
As of 1:52 PM on Friday 28 Nov 2014 (Local Time) from KATL Reporting Station
Clear Clear  
Wind Chill: 45°   Ceiling: Unl
Heat Index: 48°   Visibility: 10mi
Dew Point: 16°   Wind: 7mph
Humidity: 28%   Direction: 350°N
Pressure: 30.31"   Gusts: NA
Location:  33.58°N, 84.34°W
Report Text: KATL 281852Z 35006KT 10SM CLR 09/M09 A3031 RMK AO2 SLP271 T00891089
Loading
Personal Weather Stations






























Interactive Weather Map New forecast layout! Learn more

10-Day Weather Forecast

Advertisements
Track Severe Weather on mobile